White Hall, Texas
Current Conditions -  °F | °C
As of 10:35 AM on Sunday 25 Jan 2015 (Local Time) from K11R Reporting Station
Clear Clear  
Wind Chill: 14°   Ceiling: Unl
Heat Index: 14°   Visibility: 10mi
Dew Point:   Wind: 10mph
Humidity: 52%   Direction: 310°NW
Pressure: 30.07"   Gusts: NA
Location:  30.367°N, 96.0045°W
Report Text: K11R 251635Z AUTO 31009KT 10SM CLR 14/05 A3007 RMK AO2 T01440046
Loading
Personal Weather Stations






























Interactive Weather Map New forecast layout! Learn more

10-Day Weather Forecast

Advertisements
Track Severe Weather on mobile